Time;durP1;ratioP1;P1;durP2;ratioP2;P2;SDS_P1;SDS_P2;PMS_P1;PMS_P2;Temp;Humidity;BMP_temperature;BMP_pressure;BME280_temperature;BME280_humidity;BME280_pressure;Samples;Min_cycle;Max_cycle;Signal;HPM_P1;HPM_P2
2022/10/18 00:01:18;;;;;;;52.88;31.33;;;;;;;5.39;61.66;101880.89;1621080;87;21890;-77
2022/10/18 00:03:45;;;;;;;50.63;30.02;;;;;;;5.34;61.69;101876.73;1657026;85;21000;-78
2022/10/18 00:06:11;;;;;;;53.40;30.23;;;;;;;5.31;61.77;101869.84;1660837;85;21001;-77
2022/10/18 00:08:38;;;;;;;53.95;30.27;;;;;;;5.29;61.80;101862.45;1643466;86;21273;-77
2022/10/18 00:11:06;;;;;;;50.25;30.08;;;;;;;5.28;61.87;101852.03;1657445;84;21025;-78
2022/10/18 00:13:33;;;;;;;50.12;29.57;;;;;;;5.27;61.92;101849.02;1604823;87;21930;-77
2022/10/18 00:16:03;;;;;;;54.00;29.48;;;;;;;5.24;61.94;101846.06;1604191;88;20978;-77
2022/10/18 00:18:31;;;;;;;56.40;29.48;;;;;;;5.21;61.98;101847.91;1617374;88;21056;-77
2022/10/18 00:21:02;;;;;;;57.10;28.80;;;;;;;5.20;62.01;101839.64;1618367;87;21900;-77
2022/10/18 00:23:30;;;;;;;51.18;29.70;;;;;;;5.20;62.06;101841.81;1617240;88;21026;-77
2022/10/18 00:26:14;;;;;;;48.33;30.02;;;;;;;5.22;62.09;101831.31;1617438;88;21969;-79
2022/10/18 00:28:41;;;;;;;49.10;28.90;;;;;;;5.24;62.10;101837.34;1628677;87;20960;-78
2022/10/18 00:31:20;;;;;;;45.40;27.98;;;;;;;5.24;62.12;101829.03;1639930;86;21095;-78
2022/10/18 00:33:53;;;;;;;49.63;28.25;;;;;;;5.24;62.08;101829.48;1625283;87;21051;-77
2022/10/18 00:36:19;;;;;;;50.67;28.87;;;;;;;5.22;62.06;101824.30;1619696;85;20966;-77
2022/10/18 00:38:46;;;;;;;48.42;28.42;;;;;;;5.21;62.09;101826.95;1643135;87;22539;-78
2022/10/18 00:41:19;;;;;;;50.35;27.90;;;;;;;5.18;62.11;101833.16;1649482;86;20920;-78
2022/10/18 00:44:00;;;;;;;45.12;26.50;;;;;;;5.18;62.22;101830.08;1629712;86;21066;-78
2022/10/18 00:46:31;;;;;;;51.58;27.48;;;;;;;5.17;62.21;101827.52;1651299;84;21016;-77
2022/10/18 00:49:00;;;;;;;48.08;26.25;;;;;;;5.15;62.21;101823.65;1654216;85;20988;-78
2022/10/18 00:51:31;;;;;;;43.30;25.72;;;;;;;5.13;62.20;101830.70;1654455;86;21923;-77
2022/10/18 00:53:58;;;;;;;51.13;31.33;;;;;;;5.10;62.17;101826.00;1654663;86;21050;-77
2022/10/18 00:56:25;;;;;;;53.23;33.80;;;;;;;5.06;62.24;101821.79;1653173;85;20986;-77
2022/10/18 00:58:51;;;;;;;58.45;34.50;;;;;;;5.05;62.29;101813.53;1628066;87;21010;-78
2022/10/18 01:01:19;;;;;;;68.45;44.30;;;;;;;5.05;62.36;101812.22;1644723;86;21061;-77
2022/10/18 01:03:46;;;;;;;74.50;48.35;;;;;;;5.05;62.35;101818.31;1670599;84;21889;-77
2022/10/18 01:06:12;;;;;;;60.67;42.62;;;;;;;5.07;62.32;101809.09;1656839;85;20963;-77
2022/10/18 01:09:10;;;;;;;56.15;34.90;;;;;;;5.07;62.31;101807.78;1651828;85;21075;-77
2022/10/18 01:12:11;;;;;;;44.95;28.00;;;;;;;5.08;62.29;101805.56;1651806;85;21438;-78
2022/10/18 01:14:55;;;;;;;46.53;28.38;;;;;;;5.06;62.24;101808.23;1651994;86;21019;-77
2022/10/18 01:17:49;;;;;;;67.75;44.27;;;;;;;5.02;62.21;101801.41;1669126;85;22320;-78
2022/10/18 01:20:55;;;;;;;61.87;38.57;;;;;;;5.01;62.22;101809.28;1650858;85;21089;-79
2022/10/18 01:24:01;;;;;;;57.70;35.17;;;;;;;4.99;62.22;101806.72;1644328;86;20958;-78
2022/10/18 01:27:10;;;;;;;49.73;32.58;;;;;;;4.99;62.22;101807.18;1650512;86;21010;-79
2022/10/18 01:30:06;;;;;;;52.80;32.10;;;;;;;4.97;62.22;101802.00;1652246;85;21058;-78
2022/10/18 01:32:39;;;;;;;81.85;46.08;;;;;;;4.94;62.26;101802.11;1652021;86;20971;-78
2022/10/18 01:35:11;;;;;;;68.47;38.15;;;;;;;4.93;62.28;101799.09;1651818;85;21119;-78
2022/10/18 01:37:38;;;;;;;53.05;30.50;;;;;;;4.94;62.28;101796.02;1659398;85;21084;-77
2022/10/18 01:40:07;;;;;;;45.90;25.35;;;;;;;4.91;62.27;101794.79;1671219;85;20962;-77
2022/10/18 01:42:34;;;;;;;39.38;22.48;;;;;;;4.92;62.31;101795.19;1671282;84;20977;-77
2022/10/18 01:45:00;;;;;;;40.03;22.25;;;;;;;4.90;62.27;101787.39;1670024;85;21896;-77
2022/10/18 01:47:27;;;;;;;36.75;21.35;;;;;;;4.87;62.27;101790.98;1640917;85;21062;-78
2022/10/18 01:50:01;;;;;;;37.38;20.82;;;;;;;4.86;62.23;101792.34;1651794;86;21477;-77
2022/10/18 01:52:27;;;;;;;37.85;21.97;;;;;;;4.84;62.26;101791.09;1651051;85;21370;-78
2022/10/18 01:54:54;;;;;;;37.80;21.62;;;;;;;4.83;62.27;101788.52;1671115;85;21392;-78
2022/10/18 01:57:38;;;;;;;39.38;22.13;;;;;;;4.83;62.24;101787.22;1644528;86;22880;-78
2022/10/18 02:00:24;;;;;;;32.85;20.97;;;;;;;4.81;62.30;101783.77;1643838;86;20950;-77
2022/10/18 02:03:21;;;;;;;32.33;19.67;;;;;;;4.80;62.34;101776.83;1644001;87;21041;-78
2022/10/18 02:05:58;;;;;;;34.73;20.17;;;;;;;4.79;62.31;101772.50;1644214;86;21029;-77
2022/10/18 02:08:31;;;;;;;35.28;20.48;;;;;;;4.79;62.31;101782.52;1643778;86;20973;-77
2022/10/18 02:11:02;;;;;;;38.15;20.80;;;;;;;4.77;62.27;101777.79;1644377;84;21894;-77
2022/10/18 02:13:53;;;;;;;33.27;20.30;;;;;;;4.75;62.32;101783.53;1678796;84;21494;-76
2022/10/18 02:16:30;;;;;;;39.60;19.45;;;;;;;4.73;62.42;101785.35;1646530;85;21038;-77
2022/10/18 02:19:03;;;;;;;35.48;19.50;;;;;;;4.71;62.40;101784.52;1643089;86;21084;-78
2022/10/18 02:21:30;;;;;;;35.35;20.77;;;;;;;4.70;62.41;101786.73;1649505;86;21076;-78
2022/10/18 02:23:57;;;;;;;37.75;21.50;;;;;;;4.71;62.44;101788.91;1649431;86;21929;-78
2022/10/18 02:26:23;;;;;;;43.45;26.17;;;;;;;4.72;62.39;101787.53;1648912;86;20969;-78
2022/10/18 02:28:50;;;;;;;43.70;25.65;;;;;;;4.71;62.32;101791.06;1633577;86;21088;-78
2022/10/18 02:31:28;;;;;;;47.45;25.77;;;;;;;4.71;62.33;101788.91;1640336;86;21122;-78
2022/10/18 02:34:21;;;;;;;38.75;23.75;;;;;;;4.71;62.32;101788.91;1661136;86;21080;-78
2022/10/18 02:36:54;;;;;;;40.90;24.13;;;;;;;4.70;62.25;101785.88;1657265;86;21943;-78
2022/10/18 02:39:42;;;;;;;37.45;23.10;;;;;;;4.70;62.27;101780.66;1634588;87;20988;-78
2022/10/18 02:42:10;;;;;;;37.08;22.42;;;;;;;4.68;62.28;101779.85;1650717;86;21075;-78
2022/10/18 02:44:37;;;;;;;38.15;21.68;;;;;;;4.64;62.32;101776.49;1635195;86;21091;-78
2022/10/18 02:47:05;;;;;;;35.50;21.00;;;;;;;4.62;62.37;101775.66;1608179;89;21443;-78
2022/10/18 02:49:32;;;;;;;40.30;21.77;;;;;;;4.62;62.39;101774.80;1608513;88;21801;-78
2022/10/18 02:51:59;;;;;;;34.55;21.52;;;;;;;4.60;62.39;101774.41;1634976;86;21146;-78
2022/10/18 02:54:25;;;;;;;36.98;20.45;;;;;;;4.60;62.41;101769.63;1661092;86;20985;-77
2022/10/18 02:56:51;;;;;;;33.63;20.12;;;;;;;4.60;62.43;101772.24;1660832;86;21060;-78
2022/10/18 02:59:18;;;;;;;33.50;20.10;;;;;;;4.57;62.43;101767.12;1661424;86;21032;-78
2022/10/18 03:01:44;;;;;;;29.45;20.08;;;;;;;4.54;62.47;101765.92;1656165;85;22015;-78
2022/10/18 03:04:11;;;;;;;35.28;21.55;;;;;;;4.53;62.50;101763.72;1661170;85;20981;-78
2022/10/18 03:06:37;;;;;;;34.23;20.77;;;;;;;4.51;62.52;101760.31;1659923;86;21479;-78
2022/10/18 03:09:04;;;;;;;41.02;20.95;;;;;;;4.52;62.54;101759.85;1631422;88;20994;-78
2022/10/18 03:11:31;;;;;;;33.25;19.60;;;;;;;4.53;62.59;101759.80;1641129;86;21068;-78
2022/10/18 03:13:58;;;;;;;32.65;19.55;;;;;;;4.52;62.64;101764.63;1649483;85;22564;-78
2022/10/18 03:16:27;;;;;;;32.48;19.27;;;;;;;4.51;62.65;101759.00;1634098;87;21051;-78
2022/10/18 03:18:55;;;;;;;35.23;20.68;;;;;;;4.52;62.66;101758.09;1638106;85;21034;-78
2022/10/18 03:21:21;;;;;;;34.60;19.48;;;;;;;4.53;62.63;101758.48;1607910;86;21050;-78
2022/10/18 03:23:47;;;;;;;34.38;19.65;;;;;;;4.54;62.59;101760.23;1640679;87;21021;-78
2022/10/18 03:26:16;;;;;;;29.55;17.75;;;;;;;4.54;62.59;101759.37;1640690;86;21390;-78
2022/10/18 03:28:43;;;;;;;32.35;18.80;;;;;;;4.52;62.58;101762.02;1640385;87;20981;-78
2022/10/18 03:31:09;;;;;;;32.00;18.57;;;;;;;4.47;62.58;101757.40;1641937;85;21049;-78
2022/10/18 03:33:37;;;;;;;32.48;19.07;;;;;;;4.45;62.59;101754.44;1644372;87;21076;-78
2022/10/18 03:36:05;;;;;;;29.00;18.30;;;;;;;4.43;62.64;101750.98;1626201;87;21022;-78
2022/10/18 03:38:33;;;;;;;30.45;17.07;;;;;;;4.42;62.67;101750.59;1641547;87;21845;-78
2022/10/18 03:40:59;;;;;;;30.72;17.75;;;;;;;4.41;62.67;101745.81;1646201;85;21108;-78
2022/10/18 03:43:26;;;;;;;26.35;16.80;;;;;;;4.41;62.68;101746.27;1671793;85;21434;-77
2022/10/18 03:45:52;;;;;;;27.67;17.10;;;;;;;4.35;62.69;101743.41;1672301;85;21030;-78
2022/10/18 03:48:19;;;;;;;28.30;17.77;;;;;;;4.33;62.71;101743.03;1671781;85;21062;-78
2022/10/18 03:50:46;;;;;;;28.95;17.52;;;;;;;4.31;62.81;101738.70;1669854;84;22363;-78
2022/10/18 03:53:12;;;;;;;27.02;16.95;;;;;;;4.31;62.86;101740.02;1646138;85;21065;-78
2022/10/18 03:55:39;;;;;;;26.93;16.97;;;;;;;4.27;62.89;101737.56;1671778;84;20994;-78
2022/10/18 03:58:06;;;;;;;29.42;16.42;;;;;;;4.25;62.94;101736.77;1671736;85;20994;-78
2022/10/18 04:00:34;;;;;;;27.32;15.45;;;;;;;4.24;63.01;101733.26;1671470;85;20974;-78
2022/10/18 04:03:00;;;;;;;26.62;15.32;;;;;;;4.24;63.07;101729.79;1668726;85;22356;-77
2022/10/18 04:05:29;;;;;;;26.40;15.83;;;;;;;4.24;63.13;101726.72;1671442;85;21085;-77
2022/10/18 04:07:57;;;;;;;30.43;16.85;;;;;;;4.24;63.13;101718.02;1671624;85;21128;-79
2022/10/18 04:10:25;;;;;;;26.95;16.00;;;;;;;4.22;63.19;101712.84;1629626;87;21456;-77
2022/10/18 04:12:53;;;;;;;24.37;15.53;;;;;;;4.22;63.26;101711.53;1666884;83;20998;-77
2022/10/18 04:15:19;;;;;;;26.00;15.80;;;;;;;4.21;63.27;101714.20;1713185;83;21954;-78
2022/10/18 04:17:46;;;;;;;23.52;14.75;;;;;;;4.20;63.28;101709.88;1713376;83;21426;-78
2022/10/18 04:20:13;;;;;;;31.95;16.93;;;;;;;4.19;63.29;101711.64;1713156;83;21136;-78
2022/10/18 04:22:40;;;;;;;27.73;16.45;;;;;;;4.14;63.32;101707.45;1708103;83;21050;-78
2022/10/18 04:25:07;;;;;;;30.48;16.95;;;;;;;4.12;63.40;101710.12;1711957;83;21573;-78
2022/10/18 04:27:35;;;;;;;26.05;16.60;;;;;;;4.11;63.45;101707.55;1662508;83;21836;-78
2022/10/18 04:30:02;;;;;;;26.95;16.70;;;;;;;4.11;63.46;101709.72;1656761;85;20979;-78
2022/10/18 04:32:29;;;;;;;27.13;15.72;;;;;;;4.13;63.54;101713.58;1689783;83;21518;-77
2022/10/18 04:34:56;;;;;;;27.50;16.77;;;;;;;4.15;63.53;101715.27;1713088;83;20991;-78
2022/10/18 04:37:22;;;;;;;26.33;16.40;;;;;;;4.16;63.48;101712.20;1690975;83;21020;-78
2022/10/18 04:39:49;;;;;;;23.73;15.72;;;;;;;4.17;63.49;101714.77;1637937;86;21958;-78
2022/10/18 04:42:15;;;;;;;30.15;16.42;;;;;;;4.18;63.49;101719.55;1671357;83;20975;-78
2022/10/18 04:44:42;;;;;;;27.77;15.32;;;;;;;4.18;63.47;101713.86;1639611;86;20992;-78
2022/10/18 04:47:09;;;;;;;26.93;16.57;;;;;;;4.19;63.47;101723.41;1624496;88;21092;-78
2022/10/18 04:49:37;;;;;;;26.70;14.90;;;;;;;4.18;63.56;101716.92;1657090;85;21064;-78
2022/10/18 04:52:03;;;;;;;26.45;15.45;;;;;;;4.16;63.62;101717.44;1630179;85;22507;-78
2022/10/18 04:54:30;;;;;;;26.70;14.85;;;;;;;4.14;63.64;101721.37;1706186;83;21029;-78
2022/10/18 04:56:57;;;;;;;27.45;15.60;;;;;;;4.13;63.69;101722.73;1712998;83;21053;-77
2022/10/18 04:59:23;;;;;;;25.40;15.68;;;;;;;4.13;63.77;101726.66;1712946;83;20991;-77
2022/10/18 05:01:50;;;;;;;25.85;15.78;;;;;;;4.14;63.85;101724.45;1672352;83;21068;-78
2022/10/18 05:04:16;;;;;;;23.40;14.95;;;;;;;4.16;63.89;101720.90;1713289;83;21950;-78
2022/10/18 05:06:44;;;;;;;28.10;15.55;;;;;;;4.20;63.92;101714.66;1713232;83;21006;-78
2022/10/18 05:09:11;;;;;;;28.38;16.20;;;;;;;4.25;63.94;101717.14;1713351;83;21003;-77
2022/10/18 05:11:39;;;;;;;26.90;16.15;;;;;;;4.30;63.98;101717.84;1710040;83;21107;-78
2022/10/18 05:14:08;;;;;;;23.85;15.13;;;;;;;4.33;64.03;101717.73;1711348;83;21024;-78
2022/10/18 05:16:34;;;;;;;25.25;15.10;;;;;;;4.38;64.03;101709.30;1704957;83;22749;-78
2022/10/18 05:19:04;;;;;;;25.40;16.80;;;;;;;4.43;64.04;101715.22;1652639;86;20995;-78
2022/10/18 05:21:32;;;;;;;27.17;16.73;;;;;;;4.50;64.04;101719.35;1656642;83;21105;-77
2022/10/18 05:24:00;;;;;;;27.37;16.30;;;;;;;4.57;64.04;101718.25;1708715;84;21070;-77
2022/10/18 05:26:27;;;;;;;28.07;16.73;;;;;;;4.65;64.05;101719.77;1708756;83;21105;-77
2022/10/18 05:28:53;;;;;;;30.50;14.70;;;;;;;4.72;64.05;101718.18;1708672;84;21933;-78
2022/10/18 05:31:20;;;;;;;27.82;15.18;;;;;;;4.80;64.05;101712.23;1707557;83;21071;-78
2022/10/18 05:33:47;;;;;;;25.35;15.20;;;;;;;4.90;64.06;101719.33;1698520;84;21065;-77
2022/10/18 05:36:14;;;;;;;22.07;14.00;;;;;;;5.00;64.02;101708.93;1631934;88;21014;-77
2022/10/18 05:38:42;;;;;;;24.15;15.18;;;;;;;5.11;64.00;101713.33;1678928;85;21015;-77
2022/10/18 05:41:09;;;;;;;27.13;14.43;;;;;;;5.24;64.00;101710.30;1658797;86;21943;-77
2022/10/18 05:43:35;;;;;;;24.67;13.98;;;;;;;5.36;63.93;101711.16;1654660;83;21066;-78
2022/10/18 05:46:03;;;;;;;23.75;14.28;;;;;;;5.48;63.65;101708.08;1652644;86;20998;-78
2022/10/18 05:48:30;;;;;;;25.55;14.03;;;;;;;5.59;63.45;101714.23;1652568;86;21082;-77
2022/10/18 05:50:58;;;;;;;24.40;13.88;;;;;;;5.68;63.38;101702.09;1653640;85;21341;-78
2022/10/18 05:53:26;;;;;;;23.57;13.18;;;;;;;5.81;63.20;101701.19;1650475;86;22334;-76
2022/10/18 05:55:52;;;;;;;21.80;13.22;;;;;;;5.91;63.16;101699.95;1656746;86;21030;-76
2022/10/18 05:58:19;;;;;;;21.37;14.03;;;;;;;6.02;62.96;101705.63;1656995;86;21074;-75
2022/10/18 06:00:45;;;;;;;24.85;13.08;;;;;;;6.12;62.71;101709.59;1656928;85;21438;-76
2022/10/18 06:03:12;;;;;;;23.90;14.13;;;;;;;6.22;62.69;101706.15;1643548;86;20999;-77
2022/10/18 06:05:38;;;;;;;21.20;12.55;;;;;;;6.32;62.56;101702.23;1652574;86;21949;-76
2022/10/18 06:08:05;;;;;;;20.88;12.63;;;;;;;6.45;62.41;101703.89;1659436;85;21405;-76
2022/10/18 06:10:32;;;;;;;21.65;13.58;;;;;;;6.56;62.19;101702.98;1656965;86;21148;-76
2022/10/18 06:12:59;;;;;;;19.07;12.55;;;;;;;6.67;62.07;101699.48;1685837;83;21034;-77
2022/10/18 06:15:26;;;;;;;24.75;14.20;;;;;;;6.80;62.00;101695.41;1692654;84;20969;-77
2022/10/18 06:17:54;;;;;;;20.85;11.88;;;;;;;6.93;61.89;101686.53;1690452;84;21009;-76
2022/10/18 06:20:21;;;;;;;19.95;11.35;;;;;;;7.07;61.23;101688.12;1688974;85;21021;-76
2022/10/18 06:22:52;;;;;;;19.27;12.00;;;;;;;7.22;60.85;101683.09;1685647;84;21132;-77
2022/10/18 06:25:18;;;;;;;22.13;13.08;;;;;;;7.33;60.52;101677.73;1649363;85;21020;-76
2022/10/18 06:27:45;;;;;;;20.92;11.53;;;;;;;7.49;60.52;101677.06;1635114;87;20989;-77
2022/10/18 06:30:12;;;;;;;22.60;12.50;;;;;;;7.63;60.00;101679.45;1634564;86;21950;-79
2022/10/18 06:32:38;;;;;;;24.72;12.47;;;;;;;7.78;59.29;101673.93;1634975;84;21048;-78
2022/10/18 06:35:06;;;;;;;18.40;11.33;;;;;;;7.92;59.09;101668.03;1689111;84;20985;-77
2022/10/18 06:37:35;;;;;;;20.02;12.37;;;;;;;8.06;58.87;101674.79;1662919;84;21005;-77
2022/10/18 06:40:04;;;;;;;24.63;11.63;;;;;;;8.19;58.43;101666.67;1634264;86;20985;-77
2022/10/18 06:42:31;;;;;;;23.55;12.73;;;;;;;8.31;58.27;101666.09;1645535;84;22042;-78
2022/10/18 06:44:59;;;;;;;21.73;12.65;;;;;;;8.47;58.25;101670.62;1637469;87;21092;-76
2022/10/18 06:47:26;;;;;;;23.70;12.90;;;;;;;8.64;58.03;101669.78;1610739;89;21403;-77
2022/10/18 06:49:54;;;;;;;21.80;12.88;;;;;;;8.81;57.54;101671.94;1583394;89;21051;-77
2022/10/18 06:52:24;;;;;;;26.77;12.88;;;;;;;8.98;57.27;101671.08;1632919;87;21021;-77
2022/10/18 06:54:49;;;;;;;21.50;12.80;;;;;;;9.15;56.85;101671.02;1613545;86;21781;-76
2022/10/18 06:57:17;;;;;;;21.48;13.05;;;;;;;9.32;56.43;101670.60;1657147;85;21060;-77
2022/10/18 06:59:44;;;;;;;23.38;12.70;;;;;;;9.46;56.04;101671.58;1641559;85;21426;-77
2022/10/18 07:02:17;;;;;;;24.07;13.03;;;;;;;9.61;55.90;101659.80;1689105;84;21503;-77
2022/10/18 07:04:45;;;;;;;25.45;12.98;;;;;;;9.74;55.70;101659.02;1689470;84;21202;-78
2022/10/18 07:07:11;;;;;;;22.70;11.97;;;;;;;9.89;55.56;101655.16;1689381;84;21853;-77
2022/10/18 07:09:40;;;;;;;20.27;12.47;;;;;;;10.06;55.44;101656.86;1686495;84;21609;-77
2022/10/18 07:12:06;;;;;;;20.23;11.35;;;;;;;10.21;54.87;101653.33;1688973;85;20965;-76
2022/10/18 07:14:33;;;;;;;20.48;11.65;;;;;;;10.39;54.72;101656.73;1692272;83;46541;-76
2022/10/18 07:17:00;;;;;;;22.65;11.95;;;;;;;10.57;54.39;101651.70;1675446;83;21030;-76
2022/10/18 07:19:27;;;;;;;20.35;12.47;;;;;;;10.73;54.15;101647.21;1622281;88;21919;-76
2022/10/18 07:21:53;;;;;;;19.02;10.88;;;;;;;10.90;54.08;101640.89;1597487;87;21024;-77
2022/10/18 07:24:20;;;;;;;16.70;10.55;;;;;;;11.07;53.57;101634.11;1667587;83;21038;-76
2022/10/18 07:26:47;;;;;;;18.60;10.13;;;;;;;11.23;53.22;101632.70;1712309;83;21647;-76
2022/10/18 07:29:13;;;;;;;19.30;10.45;;;;;;;11.39;52.81;101629.48;1712877;83;21022;-76
2022/10/18 07:31:40;;;;;;;16.87;9.50;;;;;;;11.54;52.78;101626.33;1712533;83;21942;-76
2022/10/18 07:34:10;;;;;;;18.25;9.53;;;;;;;11.70;52.40;101627.06;1673767;83;21070;-76
2022/10/18 07:36:36;;;;;;;16.65;9.48;;;;;;;11.89;52.38;101624.58;1640116;85;21014;-76
2022/10/18 07:39:03;;;;;;;25.37;9.00;;;;;;;12.08;52.22;101619.78;1684144;84;20994;-77
2022/10/18 07:41:32;;;;;;;18.30;8.80;;;;;;;12.27;51.78;101614.11;1684322;84;21035;-77
2022/10/18 07:43:59;;;;;;;15.88;9.43;;;;;;;12.44;51.22;101611.16;1684723;83;22205;-76
2022/10/18 07:46:26;;;;;;;17.80;8.68;;;;;;;12.59;50.97;101611.45;1710913;83;21031;-77
2022/10/18 07:48:54;;;;;;;13.53;8.30;;;;;;;12.74;50.38;101606.92;1712808;83;21007;-77
2022/10/18 07:51:20;;;;;;;16.97;8.88;;;;;;;12.89;50.16;101615.12;1668516;83;21046;-77
2022/10/18 07:53:47;;;;;;;13.45;8.33;;;;;;;13.06;49.74;101603.34;1657531;83;21104;-77
2022/10/18 07:56:16;;;;;;;14.50;8.03;;;;;;;13.23;49.63;101600.88;1706199;83;22315;-77
2022/10/18 07:58:50;;;;;;;14.78;9.13;;;;;;;13.40;49.21;101598.31;1711814;83;21481;-78
2022/10/18 08:01:17;;;;;;;13.25;8.50;;;;;;;13.56;48.05;101593.61;1713118;83;21034;-77
2022/10/18 08:03:45;;;;;;;12.63;7.70;;;;;;;13.73;47.54;101597.70;1692574;83;21445;-76
2022/10/18 08:06:15;;;;;;;14.00;7.55;;;;;;;13.91;47.53;101586.20;1710063;83;20863;-77
2022/10/18 08:08:42;;;;;;;13.75;7.12;;;;;;;14.09;47.19;101585.29;1659460;84;22023;-77
2022/10/18 08:11:15;;;;;;;15.00;7.45;;;;;;;14.24;47.05;101590.31;1656340;85;21038;-78
2022/10/18 08:13:43;;;;;;;16.77;7.92;;;;;;;14.41;46.60;101586.86;1664827;83;21086;-77
2022/10/18 08:16:18;;;;;;;14.70;7.00;;;;;;;14.56;46.12;101581.72;1691525;83;21020;-77
2022/10/18 08:18:45;;;;;;;18.40;7.10;;;;;;;14.72;45.80;101573.41;1689013;85;20989;-77
2022/10/18 08:21:15;;;;;;;21.93;7.72;;;;;;;14.87;44.15;101568.23;1689047;84;20977;-76
2022/10/18 08:23:42;;;;;;;11.50;7.22;;;;;;;14.97;44.02;101561.70;1683038;83;21495;-77
2022/10/18 08:26:13;;;;;;;11.80;6.62;;;;;;;15.08;44.05;101557.23;1642211;86;21004;-77
2022/10/18 08:28:41;;;;;;;10.82;7.17;;;;;;;15.21;44.02;101557.08;1660963;86;21029;-78
2022/10/18 08:31:11;;;;;;;8.80;5.83;;;;;;;15.37;43.30;101550.89;1661011;86;21127;-76
2022/10/18 08:33:38;;;;;;;11.63;6.80;;;;;;;15.51;42.94;101550.25;1660247;84;21938;-76
2022/10/18 08:36:07;;;;;;;11.80;6.17;;;;;;;15.63;43.02;101550.14;1689450;83;21428;-77
2022/10/18 08:38:36;;;;;;;11.57;6.00;;;;;;;15.74;42.39;101545.27;1656951;84;21036;-76
2022/10/18 08:41:31;;;;;;;11.35;6.92;;;;;;;15.86;41.73;101552.72;1675207;84;21005;-79
2022/10/18 08:44:23;;;;;;;12.63;7.10;;;;;;;15.95;40.84;101540.81;1689055;84;21039;-76
2022/10/18 08:46:54;;;;;;;11.15;6.08;;;;;;;16.04;40.40;101539.20;1684175;83;21949;-77
2022/10/18 08:49:29;;;;;;;11.70;5.28;;;;;;;16.12;40.14;101531.41;1684511;84;21550;-77
2022/10/18 08:51:56;;;;;;;12.60;5.90;;;;;;;16.21;41.08;101529.30;1684307;84;21024;-76
2022/10/18 08:54:39;;;;;;;11.65;5.20;;;;;;;16.38;40.57;101516.33;1687623;84;21021;-76
2022/10/18 08:57:11;;;;;;;7.60;4.80;;;;;;;16.52;40.37;101519.52;1684479;84;20968;-77
2022/10/18 08:59:39;;;;;;;8.13;5.03;;;;;;;16.68;38.90;101516.83;1641877;84;21575;-76
2022/10/18 09:02:22;;;;;;;8.70;5.28;;;;;;;16.77;38.83;101514.73;1634608;87;21021;-80
2022/10/18 09:05:27;;;;;;;9.63;5.37;;;;;;;16.87;38.77;101512.95;1649316;84;21029;-78
2022/10/18 09:08:19;;;;;;;9.63;5.35;;;;;;;16.96;38.21;101509.47;1686781;85;21519;-77
2022/10/18 09:11:12;;;;;;;9.80;4.60;;;;;;;17.11;38.72;101512.62;1680105;84;20965;-77
2022/10/18 09:14:06;;;;;;;10.13;4.50;;;;;;;17.25;38.11;101504.70;1659205;85;21957;-77
2022/10/18 09:16:57;;;;;;;7.97;4.25;;;;;;;17.35;37.42;101501.55;1700205;83;29046;-77
2022/10/18 09:19:54;;;;;;;10.03;4.85;;;;;;;17.48;36.31;101494.63;1712977;83;21017;-77
2022/10/18 09:22:44;;;;;;;8.28;4.60;;;;;;;17.55;35.96;101488.57;1708489;83;21002;-77
2022/10/18 09:25:16;;;;;;;6.50;4.40;;;;;;;17.66;36.00;101492.47;1705215;83;21576;-78
2022/10/18 09:27:56;;;;;;;10.53;4.50;;;;;;;17.80;35.25;101475.18;1711168;83;21923;-78
2022/10/18 09:30:46;;;;;;;9.85;4.90;;;;;;;17.95;34.56;101479.58;1712536;83;20967;-78
2022/10/18 09:33:21;;;;;;;5.87;4.50;;;;;;;18.05;34.65;101475.09;1670756;83;21002;-77
2022/10/18 09:35:55;;;;;;;7.90;4.25;;;;;;;18.22;34.03;101470.31;1707212;83;21101;-77
2022/10/18 09:38:25;;;;;;;8.28;4.12;;;;;;;18.37;33.37;101464.02;1701326;83;21073;-78
2022/10/18 09:41:03;;;;;;;6.55;3.77;;;;;;;18.51;32.90;101452.00;1713017;83;23572;-76
2022/10/18 09:43:55;;;;;;;7.35;4.17;;;;;;;18.64;33.08;101456.53;1712407;83;21017;-77
2022/10/18 09:46:26;;;;;;;5.92;3.72;;;;;;;18.78;32.02;101441.84;1712942;83;21024;-77
2022/10/18 09:49:19;;;;;;;9.68;4.45;;;;;;;18.94;31.48;101441.20;1693932;83;21508;-77
2022/10/18 09:51:46;;;;;;;8.23;3.57;;;;;;;19.06;32.04;101429.27;1610756;86;21006;-78
2022/10/18 09:54:32;;;;;;;6.25;3.20;;;;;;;19.21;31.58;101430.45;1637946;86;21016;-77
2022/10/18 09:57:25;;;;;;;5.78;3.65;;;;;;;19.32;30.57;101434.73;1655591;86;21047;-78
2022/10/18 09:59:51;;;;;;;5.40;3.02;;;;;;;19.38;30.59;101430.92;1656972;86;21034;-77
2022/10/18 10:02:23;;;;;;;6.08;3.20;;;;;;;19.45;30.50;101429.82;1656640;86;21121;-76
2022/10/18 10:04:50;;;;;;;7.12;3.30;;;;;;;19.54;29.79;101422.70;1656979;86;21556;-75
2022/10/18 10:07:20;;;;;;;6.50;2.95;;;;;;;19.62;30.34;101419.63;1658226;83;22453;-76
2022/10/18 10:10:06;;;;;;;8.75;3.20;;;;;;;19.74;29.81;101414.85;1635948;86;21871;-73
2022/10/18 10:12:36;;;;;;;3.60;2.70;;;;;;;19.83;29.49;101413.92;1639082;86;21007;-80
2022/10/18 10:15:24;;;;;;;8.35;2.80;;;;;;;19.86;28.61;101405.55;1652913;86;21084;-77
2022/10/18 10:18:01;;;;;;;8.85;3.00;;;;;;;19.88;29.17;101398.22;1644742;86;21597;-81
2022/10/18 10:20:44;;;;;;;8.70;2.83;;;;;;;20.00;29.56;101387.56;1651641;85;21959;-80
2022/10/18 10:23:19;;;;;;;6.90;2.90;;;;;;;20.11;28.64;101379.73;1612389;88;21035;-79
2022/10/18 10:25:53;;;;;;;5.08;2.80;;;;;;;20.21;28.49;101380.97;1595856;87;20977;-80
2022/10/18 10:28:23;;;;;;;6.33;3.10;;;;;;;20.30;28.27;101375.48;1630443;86;21023;-79
2022/10/18 10:30:49;;;;;;;5.03;2.85;;;;;;;20.42;28.26;101363.11;1621103;87;21009;-79
2022/10/18 10:33:34;;;;;;;3.92;2.62;;;;;;;20.60;28.06;101358.52;1603113;89;21807;-79
2022/10/18 10:36:05;;;;;;;8.55;2.83;;;;;;;20.79;28.08;101353.36;1620831;86;20989;-79
2022/10/18 10:38:32;;;;;;;4.33;2.52;;;;;;;20.98;27.39;101353.56;1666321;84;21009;-79
2022/10/18 10:40:59;;;;;;;6.03;2.55;;;;;;;21.08;26.98;101342.16;1670306;85;21045;-79
2022/10/18 10:43:35;;;;;;;11.18;2.72;;;;;;;21.14;27.18;101334.79;1653444;86;21064;-79
2022/10/18 10:46:14;;;;;;;4.60;2.70;;;;;;;21.21;26.40;101331.75;1649068;85;20949;-80
2022/10/18 10:48:55;;;;;;;6.37;2.37;;;;;;;21.21;26.20;101341.66;1670912;84;21013;-79
2022/10/18 10:51:33;;;;;;;6.60;2.40;;;;;;;21.17;26.33;101341.67;1644169;86;21017;-80
2022/10/18 10:54:03;;;;;;;8.40;2.90;;;;;;;21.19;26.52;101340.98;1645147;84;21048;-79
2022/10/18 10:56:33;;;;;;;5.95;2.80;;;;;;;21.23;26.07;101310.08;1644271;86;21064;-80
2022/10/18 10:59:07;;;;;;;6.33;2.50;;;;;;;21.23;25.59;101306.92;1643608;86;21968;-79
2022/10/18 11:01:33;;;;;;;4.35;2.40;;;;;;;21.22;26.07;101309.23;1638275;87;21013;-79
2022/10/18 11:04:05;;;;;;;7.30;2.37;;;;;;;21.28;25.49;101301.89;1646067;86;21536;-79
2022/10/18 11:06:44;;;;;;;3.33;2.12;;;;;;;21.33;25.57;101302.75;1627788;84;21104;-80
2022/10/18 11:09:33;;;;;;;4.35;2.62;;;;;;;21.41;25.37;101313.46;1648669;85;21016;-80
2022/10/18 11:12:36;;;;;;;6.70;2.60;;;;;;;21.51;26.18;101297.99;1643690;87;21825;-80
2022/10/18 11:15:17;;;;;;;7.15;2.70;;;;;;;21.62;26.18;101282.88;1660007;84;20973;-80
2022/10/18 11:18:10;;;;;;;4.50;2.60;;;;;;;21.70;25.84;101278.80;1690840;83;21022;-80
2022/10/18 11:20:42;;;;;;;3.42;2.40;;;;;;;21.83;25.09;101280.13;1712976;83;21045;-79
2022/10/18 11:23:13;;;;;;;6.12;2.50;;;;;;;21.96;24.93;101285.27;1713224;83;21180;-79
2022/10/18 11:26:03;;;;;;;4.22;2.60;;;;;;;22.02;24.73;101267.61;1712747;83;21951;-80
2022/10/18 11:29:11;;;;;;;5.33;3.15;;;;;;;22.12;24.35;101265.58;1707181;83;21014;-80
2022/10/18 11:31:59;;;;;;;6.62;2.85;;;;;;;22.25;24.36;101269.88;1680461;83;21200;-79
2022/10/18 11:34:55;;;;;;;5.92;2.80;;;;;;;22.37;24.78;101254.16;1656422;86;21011;-79
2022/10/18 11:37:45;;;;;;;6.17;2.60;;;;;;;22.50;23.94;101248.21;1667261;84;21086;-79
2022/10/18 11:40:36;;;;;;;5.20;2.45;;;;;;;22.53;23.28;101258.61;1686620;83;21920;-79
2022/10/18 11:43:23;;;;;;;5.72;2.62;;;;;;;22.53;23.86;101239.26;1702667;83;20916;-79